createdAt,value
2019-02-14T00:00:04.915Z,0.98
2019-02-14T00:04:11.382Z,1.02
2019-02-14T00:08:16.276Z,1.05
2019-02-14T00:12:21.534Z,1.11
2019-02-14T00:16:26.413Z,1.09
2019-02-14T00:20:31.305Z,0.94
2019-02-14T00:24:36.196Z,0.92
2019-02-14T00:28:41.096Z,0.87
2019-02-14T00:32:46.005Z,0.86
2019-02-14T00:36:50.903Z,0.78
2019-02-14T00:40:55.785Z,0.72
2019-02-14T00:45:00.684Z,0.71
2019-02-14T00:49:05.581Z,0.74
2019-02-14T00:53:10.484Z,0.70
2019-02-14T00:57:16.343Z,0.72
2019-02-14T01:01:21.249Z,0.72
2019-02-14T01:05:33.487Z,0.73
2019-02-14T01:09:32.737Z,0.67
2019-02-14T01:13:37.631Z,0.60
2019-02-14T01:17:42.525Z,0.50
2019-02-14T01:21:47.416Z,0.60
2019-02-14T01:25:52.312Z,0.70
2019-02-14T01:29:57.204Z,0.74
2019-02-14T01:34:02.100Z,0.77
2019-02-14T01:38:07.000Z,0.78
2019-02-14T01:42:11.883Z,0.75
2019-02-14T01:46:16.783Z,0.73
2019-02-14T01:50:21.688Z,0.73
2019-02-14T01:54:26.586Z,0.80
2019-02-14T01:58:31.476Z,0.81
2019-02-14T02:02:36.370Z,0.85
2019-02-14T02:06:41.258Z,0.79
2019-02-14T02:10:46.146Z,0.79
2019-02-14T02:14:51.037Z,0.67
2019-02-14T02:18:55.935Z,0.42
2019-02-14T02:23:01.807Z,0.39
2019-02-14T02:27:06.691Z,0.39
2019-02-14T02:31:11.587Z,0.43
2019-02-14T02:35:16.481Z,0.46
2019-02-14T02:39:21.376Z,0.53
2019-02-14T02:43:26.340Z,0.59
2019-02-14T02:47:31.402Z,0.66
2019-02-14T02:51:36.340Z,0.69
2019-02-14T02:55:41.182Z,0.67
2019-02-14T02:59:46.087Z,0.60
2019-02-14T03:03:50.974Z,0.42
2019-02-14T03:07:55.865Z,0.44
2019-02-14T03:12:00.750Z,0.40
2019-02-14T03:16:05.636Z,0.33
2019-02-14T03:20:12.331Z,0.23
2019-02-14T03:24:17.224Z,0.24
2019-02-14T03:28:22.102Z,0.32
2019-02-14T03:32:26.989Z,0.40
2019-02-14T03:36:31.877Z,0.51
2019-02-14T03:40:36.837Z,0.55
2019-02-14T03:44:41.742Z,0.50
2019-02-14T03:48:46.630Z,0.49
2019-02-14T03:52:51.507Z,0.52
2019-02-14T03:56:56.389Z,0.53
2019-02-14T04:01:01.279Z,0.56
2019-02-14T04:05:07.103Z,0.54
2019-02-14T04:09:12.012Z,0.39
2019-02-14T04:13:16.879Z,0.37
2019-02-14T04:17:21.766Z,0.37
2019-02-14T04:21:26.651Z,0.34
2019-02-14T04:25:31.539Z,0.28
2019-02-14T04:29:36.426Z,0.19
2019-02-14T04:33:41.315Z,0.16
2019-02-14T04:37:46.207Z,-0.01
2019-02-14T04:41:51.105Z,-0.17
2019-02-14T04:45:56.009Z,-0.14
2019-02-14T04:50:00.917Z,-0.10
2019-02-14T04:54:05.817Z,-0.05
2019-02-14T04:58:10.703Z,-0.12
2019-02-14T05:02:15.605Z,-0.17
2019-02-14T05:06:20.513Z,-0.13
2019-02-14T05:10:25.406Z,-0.15
2019-02-14T05:14:30.310Z,-0.18
2019-02-14T05:18:35.197Z,-0.19
2019-02-14T05:22:40.092Z,-0.16
2019-02-14T05:26:44.989Z,-0.15
2019-02-14T05:30:49.888Z,-0.23
2019-02-14T05:34:54.785Z,-0.26
2019-02-14T05:38:59.677Z,-0.34
2019-02-14T05:43:04.587Z,-0.33
2019-02-14T05:47:09.483Z,-0.36
2019-02-14T05:51:14.394Z,-0.38
2019-02-14T05:55:19.282Z,-0.48
2019-02-14T05:59:24.182Z,-0.59
2019-02-14T06:03:29.067Z,-0.55
2019-02-14T06:07:33.968Z,-0.57
2019-02-14T06:11:38.868Z,-0.74
2019-02-14T06:15:43.778Z,-0.87
2019-02-14T06:19:48.674Z,-0.94
2019-02-14T06:23:53.564Z,-0.91
2019-02-14T06:27:58.477Z,-0.78
2019-02-14T06:32:03.363Z,-0.68
2019-02-14T06:36:08.275Z,-0.64
2019-02-14T06:40:14.715Z,-0.67
2019-02-14T06:44:19.618Z,-0.75
2019-02-14T06:48:24.508Z,-0.80
2019-02-14T06:52:29.400Z,-0.69
2019-02-14T06:56:34.294Z,-0.53
2019-02-14T07:00:39.188Z,-0.32
2019-02-14T07:04:44.089Z,-0.13
2019-02-14T07:08:48.980Z,-0.05
2019-02-14T07:12:53.876Z,0.04
2019-02-14T07:16:58.776Z,0.16
2019-02-14T07:21:03.668Z,0.33
2019-02-14T07:25:10.788Z,0.47
2019-02-14T07:29:15.682Z,0.52
2019-02-14T07:33:20.622Z,0.61
2019-02-14T07:37:27.169Z,0.74
2019-02-14T07:41:32.062Z,0.80
2019-02-14T07:45:36.973Z,0.88
2019-02-14T07:49:41.855Z,0.91
2019-02-14T07:53:46.767Z,0.91
2019-02-14T07:57:51.665Z,0.78
2019-02-14T08:01:56.576Z,0.72
2019-02-14T08:06:01.477Z,0.94
2019-02-14T08:10:11.498Z,1.16
2019-02-14T08:14:16.417Z,1.45
2019-02-14T08:18:21.315Z,1.53
2019-02-14T08:22:26.225Z,1.62
2019-02-14T08:26:31.132Z,1.69
2019-02-14T08:30:36.058Z,1.72
2019-02-14T08:34:41.783Z,1.92
2019-02-14T08:38:46.694Z,1.99
2019-02-14T08:42:51.602Z,2.02
2019-02-14T08:46:56.501Z,2.09
2019-02-14T08:51:01.395Z,2.21
2019-02-14T08:55:09.919Z,2.35
2019-02-14T08:59:14.619Z,2.50
2019-02-14T09:03:19.517Z,2.68
2019-02-14T09:07:24.404Z,2.90
2019-02-14T09:11:29.300Z,3.16
2019-02-14T09:15:36.281Z,3.44
2019-02-14T09:19:41.176Z,3.64
2019-02-14T09:23:46.084Z,3.88
2019-02-14T09:27:50.975Z,4.19
2019-02-14T09:31:55.862Z,4.52
2019-02-14T09:36:00.755Z,4.84
2019-02-14T09:40:08.760Z,5.09
2019-02-14T09:44:13.664Z,5.29
2019-02-14T09:48:18.559Z,5.52
2019-02-14T09:52:23.448Z,5.70
2019-02-14T09:56:28.362Z,5.94
2019-02-14T10:00:33.239Z,6.12
2019-02-14T10:04:38.137Z,6.26
2019-02-14T10:08:43.054Z,6.38
2019-02-14T10:12:47.928Z,6.59
2019-02-14T10:16:53.896Z,6.77
2019-02-14T10:20:58.802Z,6.91
2019-02-14T10:25:04.568Z,7.00
2019-02-14T10:29:09.466Z,7.11
2019-02-14T10:33:14.356Z,7.23
2019-02-14T10:37:19.252Z,7.41
2019-02-14T10:41:24.148Z,7.46
2019-02-14T10:45:29.040Z,7.51
2019-02-14T10:49:33.944Z,7.56
2019-02-14T10:53:38.822Z,7.64
2019-02-14T10:57:44.091Z,7.67
2019-02-14T11:01:49.959Z,7.75
2019-02-14T11:05:54.853Z,7.99
2019-02-14T11:09:59.766Z,8.34
2019-02-14T11:14:04.661Z,8.51
2019-02-14T11:18:09.561Z,8.62
2019-02-14T11:22:14.456Z,8.77
2019-02-14T11:26:19.359Z,9.02
2019-02-14T11:30:24.921Z,9.38
2019-02-14T11:34:29.812Z,9.74
2019-02-14T11:38:40.436Z,10.09
2019-02-14T11:42:41.315Z,10.42
2019-02-14T11:46:51.478Z,10.77
2019-02-14T11:50:52.819Z,11.05
2019-02-14T11:54:57.722Z,11.27
2019-02-14T11:59:02.614Z,11.43
2019-02-14T12:03:07.513Z,11.49
2019-02-14T12:07:12.415Z,11.48
2019-02-14T12:11:17.319Z,11.53
2019-02-14T12:15:23.609Z,11.57
2019-02-14T12:19:28.564Z,11.67
2019-02-14T12:23:33.470Z,11.65
2019-02-14T12:27:38.379Z,11.60
2019-02-14T12:31:43.301Z,11.59
2019-02-14T12:35:48.195Z,11.62
2019-02-14T12:39:53.097Z,11.57
2019-02-14T12:43:58.001Z,11.48
2019-02-14T12:48:02.908Z,11.30
2019-02-14T12:52:07.798Z,11.13
2019-02-14T12:56:12.703Z,10.94
2019-02-14T13:00:24.961Z,10.66
2019-02-14T13:04:29.802Z,10.48
2019-02-14T13:08:34.702Z,10.43
2019-02-14T13:12:39.633Z,10.48
2019-02-14T13:16:44.504Z,10.53
2019-02-14T13:20:49.414Z,10.59
2019-02-14T13:24:54.318Z,10.62
2019-02-14T13:28:59.225Z,10.71
2019-02-14T13:33:04.304Z,10.80
2019-02-14T13:37:09.477Z,10.82
2019-02-14T13:41:14.376Z,10.92
2019-02-14T13:45:22.077Z,10.97
2019-02-14T13:49:26.933Z,11.06
2019-02-14T13:53:31.849Z,11.17
2019-02-14T13:57:36.735Z,11.30
2019-02-14T14:01:41.714Z,11.46
2019-02-14T14:05:46.640Z,11.54
2019-02-14T14:09:51.539Z,11.59
2019-02-14T14:13:56.445Z,11.60
2019-02-14T14:18:01.347Z,11.58
2019-02-14T14:22:06.245Z,11.56
2019-02-14T14:26:11.153Z,11.56
2019-02-14T14:30:16.083Z,11.58
2019-02-14T14:34:20.977Z,11.62
2019-02-14T14:38:25.877Z,11.64
2019-02-14T14:42:41.179Z,11.63
2019-02-14T14:46:46.101Z,11.57
2019-02-14T14:50:50.997Z,11.54
2019-02-14T14:54:55.896Z,11.53
2019-02-14T14:59:00.793Z,11.52
2019-02-14T15:03:05.701Z,11.56
2019-02-14T15:07:10.609Z,11.57
2019-02-14T15:11:15.515Z,11.56
2019-02-14T15:15:20.423Z,11.56
2019-02-14T15:19:25.321Z,11.53
2019-02-14T15:23:30.246Z,11.54
2019-02-14T15:27:35.147Z,11.54
2019-02-14T15:31:40.046Z,11.49
2019-02-14T15:35:45.023Z,11.40
2019-02-14T15:39:49.936Z,11.31
2019-02-14T15:43:54.847Z,11.25
2019-02-14T15:47:59.734Z,11.20
2019-02-14T15:52:05.967Z,11.13
2019-02-14T15:56:11.294Z,10.98
2019-02-14T16:00:16.176Z,10.78
2019-02-14T16:04:21.082Z,10.64
2019-02-14T16:08:25.981Z,10.51
2019-02-14T16:12:31.975Z,10.39
2019-02-14T16:16:36.890Z,10.27
2019-02-14T16:20:42.560Z,10.10
2019-02-14T16:24:48.400Z,9.78
2019-02-14T16:28:53.292Z,9.44
2019-02-14T16:32:58.195Z,9.23
2019-02-14T16:37:03.665Z,9.01
2019-02-14T16:41:08.563Z,8.70
2019-02-14T16:45:13.468Z,8.57
2019-02-14T16:49:18.388Z,8.45
2019-02-14T16:53:23.278Z,8.22
2019-02-14T16:57:28.175Z,8.11
2019-02-14T17:01:33.064Z,7.90
2019-02-14T17:05:37.966Z,7.64
2019-02-14T17:09:42.861Z,7.48
2019-02-14T17:13:47.770Z,7.31
2019-02-14T17:17:52.664Z,7.12
2019-02-14T17:21:57.548Z,7.01
2019-02-14T17:26:02.443Z,6.83
2019-02-14T17:30:09.082Z,6.74
2019-02-14T17:34:13.977Z,6.48
2019-02-14T17:38:18.885Z,6.33
2019-02-14T17:42:23.776Z,6.17
2019-02-14T17:46:28.676Z,5.91
2019-02-14T17:50:33.597Z,5.81
2019-02-14T17:54:38.500Z,5.69
2019-02-14T17:58:43.393Z,5.62
2019-02-14T18:02:48.290Z,5.40
2019-02-14T18:06:53.182Z,5.33
2019-02-14T18:10:58.086Z,5.28
2019-02-14T18:15:03.163Z,5.25
2019-02-14T18:19:08.325Z,5.21
2019-02-14T18:23:13.217Z,4.97
2019-02-14T18:27:18.173Z,4.93
2019-02-14T18:31:23.090Z,4.71
2019-02-14T18:35:28.002Z,4.58
2019-02-14T18:39:32.909Z,4.53
2019-02-14T18:43:37.826Z,4.36
2019-02-14T18:47:42.722Z,4.37
2019-02-14T18:51:47.627Z,4.24
2019-02-14T18:55:52.532Z,4.09
2019-02-14T18:59:57.433Z,4.04
2019-02-14T19:04:02.333Z,3.96
2019-02-14T19:08:07.237Z,3.85
2019-02-14T19:12:12.415Z,3.82
2019-02-14T19:16:17.299Z,3.75
2019-02-14T19:20:22.215Z,3.78
2019-02-14T19:24:27.122Z,3.77
2019-02-14T19:28:32.010Z,3.65
2019-02-14T19:32:36.925Z,3.64
2019-02-14T19:36:41.811Z,3.59
2019-02-14T19:40:46.731Z,3.46
2019-02-14T19:44:51.613Z,3.45
2019-02-14T19:48:56.514Z,3.48
2019-02-14T19:53:01.405Z,3.20
2019-02-14T19:57:06.302Z,2.99
2019-02-14T20:01:11.206Z,2.98
2019-02-14T20:05:16.108Z,2.99
2019-02-14T20:09:21.004Z,3.04
2019-02-14T20:13:25.903Z,3.02
2019-02-14T20:17:31.776Z,3.01
2019-02-14T20:21:36.742Z,2.91
2019-02-14T20:25:41.574Z,2.91
2019-02-14T20:29:46.477Z,2.92
2019-02-14T20:33:51.377Z,2.69
2019-02-14T20:37:56.285Z,2.54
2019-02-14T20:42:01.195Z,2.59
2019-02-14T20:46:06.084Z,2.60
2019-02-14T20:50:13.199Z,2.61
2019-02-14T20:54:18.101Z,2.52
2019-02-14T20:58:23.002Z,2.42
2019-02-14T21:02:27.901Z,2.30
2019-02-14T21:06:32.796Z,2.36
2019-02-14T21:10:37.702Z,2.42
2019-02-14T21:14:42.612Z,2.42
2019-02-14T21:18:49.610Z,2.27
2019-02-14T21:22:54.117Z,2.20
2019-02-14T21:26:59.019Z,2.34
2019-02-14T21:31:03.946Z,2.41
2019-02-14T21:35:08.911Z,2.31
2019-02-14T21:39:13.796Z,2.09
2019-02-14T21:43:18.704Z,2.08
2019-02-14T21:47:23.570Z,2.12
2019-02-14T21:51:28.473Z,2.14
2019-02-14T21:55:33.389Z,2.15
2019-02-14T21:59:38.276Z,2.16
2019-02-14T22:03:43.200Z,2.17
2019-02-14T22:07:49.250Z,2.08
2019-02-14T22:11:54.406Z,2.02
2019-02-14T22:15:59.303Z,1.94
2019-02-14T22:20:06.943Z,1.93
2019-02-14T22:24:12.579Z,1.90
2019-02-14T22:28:18.467Z,1.78
2019-02-14T22:32:24.606Z,1.73
2019-02-14T22:36:29.509Z,1.84
2019-02-14T22:40:34.423Z,1.90
2019-02-14T22:44:39.320Z,1.93
2019-02-14T22:48:44.214Z,1.98
2019-02-14T22:52:49.113Z,1.99
2019-02-14T22:56:54.018Z,1.98
2019-02-14T23:01:00.060Z,1.79
2019-02-14T23:05:08.178Z,1.81
2019-02-14T23:09:13.509Z,1.76
2019-02-14T23:13:18.421Z,1.69
2019-02-14T23:17:23.331Z,1.65
2019-02-14T23:21:28.268Z,1.71
2019-02-14T23:25:33.131Z,1.69
2019-02-14T23:29:38.015Z,1.59
2019-02-14T23:33:42.919Z,1.64
2019-02-14T23:37:47.835Z,1.65
2019-02-14T23:41:52.733Z,1.52
2019-02-14T23:45:57.656Z,1.50
2019-02-14T23:50:02.597Z,1.48
2019-02-14T23:54:07.495Z,1.50
2019-02-14T23:58:12.404Z,1.51
